Queen Victoria — ZCEF3 — position and weather

sailwx.info

Track history (hours):
 
Tides and Currents Weather Stations Pressure Air Temp Water Temp Dewpoint Dewpoint Depression Visibility Wind Speed Wind Dir Waves Ship Positions

Queen Victoria

Last reported at 2017-Sep-22 02:00 UTC. Time now 2017-Sep-23 02:13 UTC.
Position N 43°57' E 009°42'.

Length 294 m; draft 8 m.

Type: Passenger vessel. MMSI: 310624000.

Date/timePositionNaut miles runAvg speedWind from/ knotsBaromVisibWave heightAir tempDewpointWater temp
2017-Sep-22 02:00N 43°57' E 009°42'714.2
2017-Sep-22 01:30N 43°56' E 009°32'714.1
2017-Sep-22 00:59N 43°55' E 009°22'814.2
2017-Sep-22 00:26N 43°54' E 009°11'614.3
2017-Sep-22 00:00N 43°53' E 009°02'714.2
2017-Sep-21 23:30N 43°52' E 008°53'714.2
2017-Sep-21 23:00N 43°51' E 008°43'714.2
2017-Sep-21 22:30N 43°50' E 008°33'714.2
2017-Sep-21 22:00N 43°49' E 008°23'814.3
2017-Sep-21 21:29N 43°48' E 008°13'1014.2
2017-Sep-21 20:48N 43°46' E 008°00'514.2
2017-Sep-21 20:29N 43°46' E 007°54'714.1
2017-Sep-21 20:00N 43°44' E 007°45'713.9
2017-Sep-21 19:30N 43°44' E 007°35'7 1.2
2017-Sep-21 14:03N 43°44' E 007°26'0 0.0
2017-Sep-21 14:00N 43°44' E 007°26'0 0.0
2017-Sep-21 12:48N 43°44' E 007°26'0 0.0
2017-Sep-21 12:30N 43°44' E 007°26'0 0.0
2017-Sep-21 12:00N 43°44' E 007°26'0 0.0
2017-Sep-21 11:27N 43°44' E 007°26'0 0.0
2017-Sep-21 10:45N 43°44' E 007°26'0 0.0
2017-Sep-21 05:40N 43°44' E 007°26'1 2.4
2017-Sep-21 05:22N 43°44' E 007°27'2 6.5
2017-Sep-21 05:00N 43°42' E 007°29'710.1
2017-Sep-21 04:17N 43°36' E 007°32'410.2
2017-Sep-21 03:55N 43°32' E 007°34'410.3
2017-Sep-21 03:30N 43°28' E 007°37'510.2
2017-Sep-21 03:00N 43°24' E 007°39'510.2
2017-Sep-21 02:30N 43°19' E 007°42'510.2
2017-Sep-21 02:00N 43°14' E 007°45'510.2
2017-Sep-21 01:30N 43°09' E 007°47'510.0
2017-Sep-21 00:58N 43°04' E 007°50'510.2
2017-Sep-21 00:30N 43°00' E 007°53'510.2
2017-Sep-21 00:00N 42°55' E 007°55'510.1
2017-Sep-20 23:30N 42°51' E 007°58'510.2
2017-Sep-20 23:01N 42°46' E 008°01'610.1
2017-Sep-20 22:27N 42°41' E 008°04'410.1
2017-Sep-20 22:00N 42°37' E 008°06'510.1
2017-Sep-20 21:30N 42°32' E 008°09'510.1
2017-Sep-20 21:00N 42°27' E 008°11'610.1
2017-Sep-20 20:21N 42°21' E 008°15'247 5.8
2017-Sep-19 02:00N 41°18' E 002°54'33 8.0 050 / 51018.910.8 19.011.824.0
2017-Sep-18 21:55N 41°18' E 002°10'1 0.0
2017-Sep-18 05:05N 41°18' E 002°11'0 4.3
2017-Sep-18 05:00N 41°18' E 002°11'4611.6
2017-Sep-18 01:00N 41°12' E 003°12'19412.9 040 / 251017.110.8 20.014.025.0
2017-Sep-17 10:00N 41°12' E 007°30'276 7.1 270 / 171021.310.8 19.0 9.623.0
2017-Sep-15 19:10N 40°50' E 013°35'1818.4
2017-Sep-15 18:11N 40°37' E 013°51'918.2
2017-Sep-15 17:40N 40°39' E 014°03'318.4
2017-Sep-15 17:30N 40°41' E 014°06'816.5
2017-Sep-15 17:00N 40°46' E 014°14'4 3.0
2017-Sep-15 15:39N 40°50' E 014°16'0 0.0
2017-Sep-15 15:25N 40°50' E 014°16'0 0.0
2017-Sep-15 05:39N 40°50' E 014°16'1 3.1
2017-Sep-15 05:30N 40°50' E 014°16'25018.7
2017-Sep-14 16:07N 39°03' E 009°22'220.0
2017-Sep-14 16:00N 39°04' E 009°19'917.8
2017-Sep-14 15:30N 39°09' E 009°10'4 8.0
2017-Sep-14 15:00N 39°12' E 009°07'0 0.9
2017-Sep-14 14:30N 39°12' E 009°06'0 0.0
2017-Sep-14 14:00N 39°12' E 009°06'0 0.0
2017-Sep-14 13:30N 39°12' E 009°06'0 0.0
2017-Sep-14 13:00N 39°12' E 009°06'0 0.0
2017-Sep-14 12:30N 39°12' E 009°06'0 0.0
2017-Sep-14 12:00N 39°12' E 009°06'0 0.0
2017-Sep-14 11:30N 39°12' E 009°06'0 0.0
2017-Sep-14 11:00N 39°12' E 009°06'0 0.0
2017-Sep-14 10:30N 39°12' E 009°06'0 0.0
2017-Sep-14 10:00N 39°12' E 009°06'0 0.0
2017-Sep-14 09:30N 39°12' E 009°06'0 0.0
2017-Sep-14 09:00N 39°12' E 009°06'0 0.0
2017-Sep-14 08:30N 39°12' E 009°06'0 0.0
2017-Sep-14 08:00N 39°12' E 009°06'0 0.0
2017-Sep-14 07:30N 39°12' E 009°06'0 0.0
2017-Sep-14 07:00N 39°12' E 009°06'0 0.0
2017-Sep-14 06:30N 39°12' E 009°06'0 0.0
2017-Sep-14 06:00N 39°12' E 009°06'0 1.0
2017-Sep-14 05:30N 39°12' E 009°07'2 4.8
2017-Sep-14 05:00N 39°10' E 009°07'611.5
2017-Sep-14 04:30N 39°06' E 009°13'816.7
2017-Sep-14 04:00N 39°01' E 009°21'816.6
2017-Sep-14 03:30N 38°58' E 009°31'15816.6
2017-Sep-13 17:58N 38°30' E 012°51'816.6
2017-Sep-13 17:30N 38°29' E 013°01'816.6
2017-Sep-13 17:00N 38°28' E 013°11'816.6
2017-Sep-13 16:30N 38°27' E 013°22'816.6
2017-Sep-13 16:00N 38°25' E 013°32'816.6
2017-Sep-13 15:30N 38°24' E 013°42'816.5
2017-Sep-13 15:01N 38°23' E 013°53'816.6
2017-Sep-13 14:30N 38°24' E 014°04'4516.6
2017-Sep-13 11:47N 38°20' E 015°01'516.4
2017-Sep-13 11:30N 38°20' E 015°07'816.5
2017-Sep-13 11:00N 38°20' E 015°17'816.5
2017-Sep-13 10:30N 38°21' E 015°28'816.4
2017-Sep-13 10:00N 38°19' E 015°38'6 7.0
2017-Sep-13 09:13N 38°14' E 015°37'315.6
2017-Sep-13 09:00N 38°11' E 015°37'815.2
2017-Sep-13 08:30N 38°03' E 015°36'815.9
2017-Sep-13 08:00N 37°56' E 015°40'816.1
2017-Sep-13 07:30N 37°52' E 015°49'  
Track history (hours):
 
Tides and Currents Weather Stations Pressure Air Temp Water Temp Dewpoint Dewpoint Depression Visibility Wind Speed Wind Dir Waves Ship Positions

Queen Victoria

Last reported at 2017-Sep-22 02:00 UTC. Time now 2017-Sep-23 02:13 UTC.
Position N 43°57' E 009°42'.

Length 294 m; draft 8 m.

Type: Passenger vessel. MMSI: 310624000.

Date/timePositionNaut miles runAvg speedWind from/ knotsBaromVisibWave heightAir tempDewpointWater temp
2017-Sep-22 02:00N 43°57' E 009°42'714.2
2017-Sep-22 01:30N 43°56' E 009°32'714.1
2017-Sep-22 00:59N 43°55' E 009°22'814.2
2017-Sep-22 00:26N 43°54' E 009°11'614.3
2017-Sep-22 00:00N 43°53' E 009°02'714.2
2017-Sep-21 23:30N 43°52' E 008°53'714.2
2017-Sep-21 23:00N 43°51' E 008°43'714.2
2017-Sep-21 22:30N 43°50' E 008°33'714.2
2017-Sep-21 22:00N 43°49' E 008°23'814.3
2017-Sep-21 21:29N 43°48' E 008°13'1014.2
2017-Sep-21 20:48N 43°46' E 008°00'514.2
2017-Sep-21 20:29N 43°46' E 007°54'714.1
2017-Sep-21 20:00N 43°44' E 007°45'713.9
2017-Sep-21 19:30N 43°44' E 007°35'7 1.2
2017-Sep-21 14:03N 43°44' E 007°26'0 0.0
2017-Sep-21 14:00N 43°44' E 007°26'0 0.0
2017-Sep-21 12:48N 43°44' E 007°26'0 0.0
2017-Sep-21 12:30N 43°44' E 007°26'0 0.0
2017-Sep-21 12:00N 43°44' E 007°26'0 0.0
2017-Sep-21 11:27N 43°44' E 007°26'0 0.0
2017-Sep-21 10:45N 43°44' E 007°26'0 0.0
2017-Sep-21 05:40N 43°44' E 007°26'1 2.4
2017-Sep-21 05:22N 43°44' E 007°27'2 6.5
2017-Sep-21 05:00N 43°42' E 007°29'710.1
2017-Sep-21 04:17N 43°36' E 007°32'410.2
2017-Sep-21 03:55N 43°32' E 007°34'410.3
2017-Sep-21 03:30N 43°28' E 007°37'510.2
2017-Sep-21 03:00N 43°24' E 007°39'510.2
2017-Sep-21 02:30N 43°19' E 007°42'510.2
2017-Sep-21 02:00N 43°14' E 007°45'510.2
2017-Sep-21 01:30N 43°09' E 007°47'510.0
2017-Sep-21 00:58N 43°04' E 007°50'510.2
2017-Sep-21 00:30N 43°00' E 007°53'510.2
2017-Sep-21 00:00N 42°55' E 007°55'510.1
2017-Sep-20 23:30N 42°51' E 007°58'510.2
2017-Sep-20 23:01N 42°46' E 008°01'610.1
2017-Sep-20 22:27N 42°41' E 008°04'410.1
2017-Sep-20 22:00N 42°37' E 008°06'510.1
2017-Sep-20 21:30N 42°32' E 008°09'510.1
2017-Sep-20 21:00N 42°27' E 008°11'610.1
2017-Sep-20 20:21N 42°21' E 008°15'247 5.8
2017-Sep-19 02:00N 41°18' E 002°54'33 8.0 050 / 51018.910.8 19.011.824.0
2017-Sep-18 21:55N 41°18' E 002°10'1 0.0
2017-Sep-18 05:05N 41°18' E 002°11'0 4.3
2017-Sep-18 05:00N 41°18' E 002°11'4611.6
2017-Sep-18 01:00N 41°12' E 003°12'19412.9 040 / 251017.110.8 20.014.025.0
2017-Sep-17 10:00N 41°12' E 007°30'276 7.1 270 / 171021.310.8 19.0 9.623.0
2017-Sep-15 19:10N 40°50' E 013°35'1818.4
2017-Sep-15 18:11N 40°37' E 013°51'918.2
2017-Sep-15 17:40N 40°39' E 014°03'318.4
2017-Sep-15 17:30N 40°41' E 014°06'816.5
2017-Sep-15 17:00N 40°46' E 014°14'4 3.0
2017-Sep-15 15:39N 40°50' E 014°16'0 0.0
2017-Sep-15 15:25N 40°50' E 014°16'0 0.0
2017-Sep-15 05:39N 40°50' E 014°16'1 3.1
2017-Sep-15 05:30N 40°50' E 014°16'25018.7
2017-Sep-14 16:07N 39°03' E 009°22'220.0
2017-Sep-14 16:00N 39°04' E 009°19'917.8
2017-Sep-14 15:30N 39°09' E 009°10'4 8.0
2017-Sep-14 15:00N 39°12' E 009°07'0 0.9
2017-Sep-14 14:30N 39°12' E 009°06'0 0.0
2017-Sep-14 14:00N 39°12' E 009°06'0 0.0
2017-Sep-14 13:30N 39°12' E 009°06'0 0.0
2017-Sep-14 13:00N 39°12' E 009°06'0 0.0
2017-Sep-14 12:30N 39°12' E 009°06'0 0.0
2017-Sep-14 12:00N 39°12' E 009°06'0 0.0
2017-Sep-14 11:30N 39°12' E 009°06'0 0.0
2017-Sep-14 11:00N 39°12' E 009°06'0 0.0
2017-Sep-14 10:30N 39°12' E 009°06'0 0.0
2017-Sep-14 10:00N 39°12' E 009°06'0 0.0
2017-Sep-14 09:30N 39°12' E 009°06'0 0.0
2017-Sep-14 09:00N 39°12' E 009°06'0 0.0
2017-Sep-14 08:30N 39°12' E 009°06'0 0.0
2017-Sep-14 08:00N 39°12' E 009°06'0 0.0
2017-Sep-14 07:30N 39°12' E 009°06'0 0.0
2017-Sep-14 07:00N 39°12' E 009°06'0 0.0
2017-Sep-14 06:30N 39°12' E 009°06'0 0.0
2017-Sep-14 06:00N 39°12' E 009°06'0 1.0
2017-Sep-14 05:30N 39°12' E 009°07'2 4.8
2017-Sep-14 05:00N 39°10' E 009°07'611.5
2017-Sep-14 04:30N 39°06' E 009°13'816.7
2017-Sep-14 04:00N 39°01' E 009°21'816.6
2017-Sep-14 03:30N 38°58' E 009°31'15816.6
2017-Sep-13 17:58N 38°30' E 012°51'816.6
2017-Sep-13 17:30N 38°29' E 013°01'816.6
2017-Sep-13 17:00N 38°28' E 013°11'816.6
2017-Sep-13 16:30N 38°27' E 013°22'816.6
2017-Sep-13 16:00N 38°25' E 013°32'816.6
2017-Sep-13 15:30N 38°24' E 013°42'816.5
2017-Sep-13 15:01N 38°23' E 013°53'816.6
2017-Sep-13 14:30N 38°24' E 014°04'4516.6
2017-Sep-13 11:47N 38°20' E 015°01'516.4
2017-Sep-13 11:30N 38°20' E 015°07'816.5
2017-Sep-13 11:00N 38°20' E 015°17'816.5
2017-Sep-13 10:30N 38°21' E 015°28'816.4
2017-Sep-13 10:00N 38°19' E 015°38'6 7.0
2017-Sep-13 09:13N 38°14' E 015°37'315.6
2017-Sep-13 09:00N 38°11' E 015°37'815.2
2017-Sep-13 08:30N 38°03' E 015°36'815.9
2017-Sep-13 08:00N 37°56' E 015°40'816.1
2017-Sep-13 07:30N 37°52' E 015°49'  

Dump ship's entire track history